Time;durP1;ratioP1;P1;durP2;ratioP2;P2;SDS_P1;SDS_P2;PMS_P1;PMS_P2;Temp;Humidity;BMP_temperature;BMP_pressure;BME280_temperature;BME280_humidity;BME280_pressure;Samples;Min_cycle;Max_cycle;Signal;HPM_P1;HPM_P2
2023/10/11 00:00:25;;;;;;;13.95;9.68;;;;;;;;;;5033543;28;20033;-59
2023/10/11 00:02:51;;;;;;;14.07;10.00;;;;;;;;;;5015778;28;20042;-61
2023/10/11 00:05:17;;;;;;;13.90;9.60;;;;;;;;;;5016332;28;20072;-62
2023/10/11 00:07:44;;;;;;;14.90;10.60;;;;;;;;;;5016079;28;20097;-61
2023/10/11 00:10:19;;;;;;;14.05;9.88;;;;;;;;;;5015381;28;20029;-61
2023/10/11 00:12:45;;;;;;;15.90;11.05;;;;;;;;;;5013824;28;20026;-61
2023/10/11 00:15:11;;;;;;;14.13;10.13;;;;;;;;;;5015725;28;20033;-62
2023/10/11 00:17:37;;;;;;;17.95;12.93;;;;;;;;;;5015717;28;20022;-62
2023/10/11 00:20:16;;;;;;;14.30;10.20;;;;;;;;;;5015043;28;20049;-61
2023/10/11 00:22:42;;;;;;;;;;;;;;;;;;5016003;28;20032;-61
2023/10/11 00:25:09;;;;;;;14.10;9.85;;;;;;;;;;5015966;28;20000;-58
2023/10/11 00:27:36;;;;;;;14.65;10.32;;;;;;;;;;5015503;28;20025;-57
2023/10/11 00:30:02;;;;;;;14.05;9.85;;;;;;;;;;5015017;28;20029;-60
2023/10/11 00:32:28;;;;;;;14.13;10.20;;;;;;;;;;5013338;28;20399;-60
2023/10/11 00:34:54;;;;;;;14.63;11.02;;;;;;;;;;5015176;28;20089;-62
2023/10/11 00:37:20;;;;;;;15.02;11.20;;;;;;;;;;5015819;28;20049;-60
2023/10/11 00:39:46;;;;;;;17.35;10.40;;;;;;;;;;5015157;28;20384;-60
2023/10/11 00:42:13;;;;;;;14.10;10.13;;;;;;;;;;5013226;28;20156;-59
2023/10/11 00:44:40;;;;;;;14.20;10.07;;;;;;;;;;5019152;28;20074;-61
2023/10/11 00:47:07;;;;;;;22.08;12.32;;;;;;;;;;5015092;28;20029;-58
2023/10/11 00:49:39;;;;;;;17.05;11.20;;;;;;;;;;5015043;28;20030;-62
2023/10/11 00:52:09;;;;;;;14.50;10.95;;;;;;;;;;5013753;28;20081;-59
2023/10/11 00:54:37;;;;;;;14.15;10.18;;;;;;;;;;5015043;28;20408;-62
2023/10/11 00:57:03;;;;;;;14.10;10.20;;;;;;;;;;5015107;28;20025;-59
2023/10/11 00:59:30;;;;;;;14.40;10.90;;;;;;;;;;5015107;28;20022;-61
2023/10/11 01:01:58;;;;;;;14.10;10.20;;;;;;;;;;5012368;28;20048;-61
2023/10/11 01:04:33;;;;;;;14.25;10.27;;;;;;;;;;5014147;28;20439;-61
2023/10/11 01:06:59;;;;;;;22.05;12.07;;;;;;;;;;5014693;28;20491;-58
2023/10/11 01:09:28;;;;;;;14.40;10.50;;;;;;;;;;5016120;28;20349;-61
2023/10/11 01:11:54;;;;;;;14.40;10.65;;;;;;;;;;5017005;28;20113;-60
2023/10/11 01:14:23;;;;;;;14.15;10.38;;;;;;;;;;5017024;28;20092;-62
2023/10/11 01:16:51;;;;;;;14.40;10.60;;;;;;;;;;5018757;28;20026;-60
2023/10/11 01:19:18;;;;;;;15.75;11.27;;;;;;;;;;5017792;28;20077;-61
2023/10/11 01:21:48;;;;;;;14.30;10.50;;;;;;;;;;5018393;28;20044;-61
2023/10/11 01:24:16;;;;;;;14.10;10.10;;;;;;;;;;5018530;28;20022;-61
2023/10/11 01:26:42;;;;;;;14.00;9.70;;;;;;;;;;5018751;28;20022;-60
2023/10/11 01:29:09;;;;;;;24.20;11.18;;;;;;;;;;5018330;28;20022;-63
2023/10/11 01:31:35;;;;;;;14.23;10.35;;;;;;;;;;5018427;28;20503;-60
2023/10/11 01:34:01;;;;;;;17.63;11.50;;;;;;;;;;5017055;28;20036;-60
2023/10/11 01:36:27;;;;;;;14.02;9.90;;;;;;;;;;5019087;28;20049;-60
2023/10/11 01:38:54;;;;;;;14.20;10.15;;;;;;;;;;5017233;28;20456;-60
2023/10/11 01:41:20;;;;;;;14.07;10.05;;;;;;;;;;5017583;28;20022;-60
2023/10/11 01:43:46;;;;;;;15.85;10.90;;;;;;;;;;5017662;28;20377;-60
2023/10/11 01:46:13;;;;;;;14.07;10.07;;;;;;;;;;5018185;28;20105;-60
2023/10/11 01:48:39;;;;;;;15.85;11.02;;;;;;;;;;5018668;28;20471;-60
2023/10/11 01:51:06;;;;;;;14.25;10.00;;;;;;;;;;5017368;28;20079;-62
2023/10/11 01:53:32;;;;;;;14.10;10.00;;;;;;;;;;5017322;28;20053;-59
2023/10/11 01:55:58;;;;;;;14.00;9.80;;;;;;;;;;5016430;28;20022;-59
2023/10/11 01:58:24;;;;;;;14.40;10.48;;;;;;;;;;5016354;28;20032;-61
2023/10/11 02:00:50;;;;;;;13.98;9.80;;;;;;;;;;5016480;28;20026;-60
2023/10/11 02:03:16;;;;;;;14.73;10.38;;;;;;;;;;5017302;28;20021;-59
2023/10/11 02:05:42;;;;;;;18.67;11.23;;;;;;;;;;5015895;28;20022;-61
2023/10/11 02:08:17;;;;;;;14.10;10.10;;;;;;;;;;5020595;28;20076;-60
2023/10/11 02:10:44;;;;;;;14.50;10.27;;;;;;;;;;5018053;28;20018;-60
2023/10/11 02:13:10;;;;;;;14.50;10.95;;;;;;;;;;5015898;28;20025;-60
2023/10/11 02:15:38;;;;;;;14.60;10.15;;;;;;;;;;5017435;28;20014;-58
2023/10/11 02:18:08;;;;;;;13.98;9.60;;;;;;;;;;5020765;28;20170;-58
2023/10/11 02:20:35;;;;;;;14.00;9.70;;;;;;;;;;5018717;28;20046;-60
2023/10/11 02:23:01;;;;;;;14.50;11.02;;;;;;;;;;5007837;28;20076;-58
2023/10/11 02:25:27;;;;;;;16.23;10.57;;;;;;;;;;5017230;28;20105;-61
2023/10/11 02:27:53;;;;;;;13.90;9.55;;;;;;;;;;5016829;28;20089;-59
2023/10/11 02:30:24;;;;;;;15.00;10.02;;;;;;;;;;5014344;28;20022;-61
2023/10/11 02:32:52;;;;;;;15.40;11.35;;;;;;;;;;5015926;28;20022;-60
2023/10/11 02:35:19;;;;;;;13.90;9.43;;;;;;;;;;5016683;28;20060;-59
2023/10/11 02:37:48;;;;;;;14.55;10.68;;;;;;;;;;5014939;28;20037;-59
2023/10/11 02:40:22;;;;;;;14.10;10.13;;;;;;;;;;5015634;28;20101;-59
2023/10/11 02:43:02;;;;;;;14.00;9.70;;;;;;;;;;5015363;28;20499;-60
2023/10/11 02:45:28;;;;;;;14.00;9.82;;;;;;;;;;5016745;28;20061;-61
2023/10/11 02:48:02;;;;;;;14.00;9.90;;;;;;;;;;5016254;28;20029;-60
2023/10/11 02:50:36;;;;;;;13.93;9.63;;;;;;;;;;5016178;28;20496;-60
2023/10/11 02:53:05;;;;;;;14.30;10.30;;;;;;;;;;5016314;28;20018;-56
2023/10/11 02:55:31;;;;;;;14.15;9.98;;;;;;;;;;5016539;28;20028;-60
2023/10/11 02:58:06;;;;;;;13.90;9.60;;;;;;;;;;5023842;28;20227;-62
2023/10/11 03:00:43;;;;;;;14.30;10.13;;;;;;;;;;5015335;28;20017;-60
2023/10/11 03:03:15;;;;;;;14.60;10.70;;;;;;;;;;5024542;28;20013;-61
2023/10/11 03:05:41;;;;;;;14.05;10.00;;;;;;;;;;5015001;28;20061;-60
2023/10/11 03:08:19;;;;;;;14.50;10.75;;;;;;;;;;5016033;28;20145;-62
2023/10/11 03:10:53;;;;;;;;;;;;;;;;;;5015873;28;20095;-59
2023/10/11 03:13:24;;;;;;;14.38;10.68;;;;;;;;;;5013544;28;20480;-61
2023/10/11 03:15:56;;;;;;;15.23;10.60;;;;;;;;;;5014025;28;20021;-62
2023/10/11 03:18:25;;;;;;;14.30;10.00;;;;;;;;;;5016014;28;20054;-60
2023/10/11 03:20:58;;;;;;;14.18;10.23;;;;;;;;;;5015547;28;20094;-60
2023/10/11 03:23:27;;;;;;;15.05;10.48;;;;;;;;;;5013305;28;20025;-59
2023/10/11 03:25:53;;;;;;;14.35;9.95;;;;;;;;;;5014723;28;20465;-60
2023/10/11 03:28:26;;;;;;;14.13;10.10;;;;;;;;;;5015985;28;20454;-59
2023/10/11 03:30:52;;;;;;;15.75;11.20;;;;;;;;;;5015550;28;20431;-60
2023/10/11 03:33:18;;;;;;;14.20;10.20;;;;;;;;;;5015342;28;20030;-59
2023/10/11 03:35:45;;;;;;;14.40;10.40;;;;;;;;;;5014673;28;20064;-61
2023/10/11 03:38:17;;;;;;;14.25;10.57;;;;;;;;;;5015941;28;20105;-59
2023/10/11 03:41:29;;;;;;;14.50;10.70;;;;;;;;;;5014492;28;20547;-59
2023/10/11 03:43:32;;;;;;;14.02;9.93;;;;;;;;;;5007218;28;20030;-59
2023/10/11 03:46:01;;;;;;;14.02;9.90;;;;;;;;;;5023486;28;20556;-58
2023/10/11 03:48:34;;;;;;;14.18;10.27;;;;;;;;;;5015538;28;20022;-57
2023/10/11 03:51:00;;;;;;;14.50;10.88;;;;;;;;;;5014579;28;20033;-58
2023/10/11 03:53:26;;;;;;;14.05;9.98;;;;;;;;;;5015071;28;20025;-58
2023/10/11 03:55:53;;;;;;;16.25;12.45;;;;;;;;;;5015067;28;20052;-60
2023/10/11 03:58:53;;;;;;;15.05;10.95;;;;;;;;;;5015364;28;20022;-58
2023/10/11 04:03:41;;;;;;;14.20;10.25;;;;;;;;;;5014698;28;20038;-59
2023/10/11 04:06:13;;;;;;;14.73;11.20;;;;;;;;;;5015148;28;20026;-59
2023/10/11 04:09:00;;;;;;;15.18;12.07;;;;;;;;;;5014920;28;20049;-60
2023/10/11 04:11:54;;;;;;;14.43;10.80;;;;;;;;;;5013571;28;20021;-59
2023/10/11 04:14:25;;;;;;;14.40;10.73;;;;;;;;;;5008491;28;20172;-59
2023/10/11 04:16:56;;;;;;;15.18;11.57;;;;;;;;;;5013007;28;20483;-60
2023/10/11 04:19:22;;;;;;;14.75;11.15;;;;;;;;;;5012803;28;20048;-59
2023/10/11 04:24:21;;;;;;;16.40;12.10;;;;;;;;;;5014405;28;20022;-58
2023/10/11 04:29:31;;;;;;;14.38;10.82;;;;;;;;;;5013837;28;20092;-57
2023/10/11 04:34:32;;;;;;;14.35;10.93;;;;;;;;;;5014325;28;20037;-59
2023/10/11 04:36:59;;;;;;;14.30;10.80;;;;;;;;;;5012564;28;20053;-58
2023/10/11 04:39:33;;;;;;;14.40;10.95;;;;;;;;;;5012295;28;20014;-61
2023/10/11 04:41:59;;;;;;;14.30;10.20;;;;;;;;;;5018750;28;20114;-58
2023/10/11 04:44:42;;;;;;;14.48;10.90;;;;;;;;;;5019851;28;20464;-60
2023/10/11 04:47:09;;;;;;;14.63;11.15;;;;;;;;;;5021315;28;20624;-58
2023/10/11 04:49:35;;;;;;;16.05;12.25;;;;;;;;;;5020367;28;20081;-59
2023/10/11 04:52:10;;;;;;;14.20;10.25;;;;;;;;;;5019007;28;20415;-59
2023/10/11 04:54:36;;;;;;;14.25;10.32;;;;;;;;;;5021350;28;20068;-59
2023/10/11 04:57:17;;;;;;;15.52;11.10;;;;;;;;;;5025392;28;20032;-58
2023/10/11 04:59:46;;;;;;;14.40;10.82;;;;;;;;;;5023433;28;20074;-58
2023/10/11 05:02:58;;;;;;;14.10;9.77;;;;;;;;;;5020480;28;20029;-61
2023/10/11 05:05:05;;;;;;;17.38;10.65;;;;;;;;;;5021075;28;20038;-59
2023/10/11 05:07:32;;;;;;;15.70;10.32;;;;;;;;;;5019735;28;20025;-62
2023/10/11 05:10:29;;;;;;;14.70;10.90;;;;;;;;;;5020879;28;20084;-59
2023/10/11 05:13:05;;;;;;;14.30;10.18;;;;;;;;;;5021047;28;20084;-59
2023/10/11 05:15:42;;;;;;;14.60;11.18;;;;;;;;;;5020689;28;20041;-61
2023/10/11 05:18:08;;;;;;;14.15;10.00;;;;;;;;;;5019694;28;20049;-60
2023/10/11 05:23:06;;;;;;;14.52;10.63;;;;;;;;;;5021559;28;20434;-59
2023/10/11 05:28:45;;;;;;;17.35;11.02;;;;;;;;;;5009114;28;20022;-61
2023/10/11 05:52:55;;;;;;;14.32;10.60;;;;;;;;;;5026366;28;20131;-59
2023/10/11 05:55:22;;;;;;;14.45;10.80;;;;;;;;;;5015542;28;20373;-62
2023/10/11 05:57:48;;;;;;;15.57;11.50;;;;;;;;;;5017384;28;20074;-61
2023/10/11 06:00:23;;;;;;;14.43;10.85;;;;;;;;;;5016394;28;20022;-58
2023/10/11 06:02:50;;;;;;;14.50;10.88;;;;;;;;;;5016987;28;20073;-59
2023/10/11 06:05:17;;;;;;;14.18;10.25;;;;;;;;;;5017084;28;20030;-56
2023/10/11 06:07:43;;;;;;;17.00;12.10;;;;;;;;;;5017701;28;20031;-62
2023/10/11 06:10:13;;;;;;;14.85;11.52;;;;;;;;;;5017617;28;20069;-62
2023/10/11 06:12:39;;;;;;;14.68;10.82;;;;;;;;;;5016959;28;20030;-61
2023/10/11 06:15:15;;;;;;;14.18;10.30;;;;;;;;;;5017006;28;20018;-60
2023/10/11 06:17:41;;;;;;;14.52;11.02;;;;;;;;;;5017383;28;20064;-59
2023/10/11 06:20:23;;;;;;;14.27;10.32;;;;;;;;;;5016725;28;20062;-60
2023/10/11 06:22:49;;;;;;;14.23;10.35;;;;;;;;;;5017091;28;20104;-63
2023/10/11 06:25:22;;;;;;;14.45;10.80;;;;;;;;;;5016684;28;20033;-62
2023/10/11 06:30:24;;;;;;;14.50;10.48;;;;;;;;;;5016603;28;20038;-61
2023/10/11 06:32:50;;;;;;;16.42;12.45;;;;;;;;;;5015692;28;20038;-60
2023/10/11 06:35:23;;;;;;;15.02;10.70;;;;;;;;;;5016628;28;20033;-61
2023/10/11 06:37:53;;;;;;;14.98;11.50;;;;;;;;;;5016478;28;20018;-60
2023/10/11 06:43:07;;;;;;;14.73;10.93;;;;;;;;;;4995163;28;20033;-60
2023/10/11 06:45:34;;;;;;;14.25;10.68;;;;;;;;;;5016609;28;20018;-62
2023/10/11 06:48:06;;;;;;;15.23;11.38;;;;;;;;;;5016163;28;20022;-60
2023/10/11 06:50:41;;;;;;;14.60;11.20;;;;;;;;;;5014992;28;20014;-62
2023/10/11 06:53:08;;;;;;;14.63;10.68;;;;;;;;;;5016502;28;20029;-60
2023/10/11 06:55:35;;;;;;;14.52;11.05;;;;;;;;;;5014435;28;20018;-58
2023/10/11 06:58:09;;;;;;;14.35;10.45;;;;;;;;;;5016397;28;20510;-69
2023/10/11 07:00:38;;;;;;;17.33;12.05;;;;;;;;;;5013786;28;20803;-63
2023/10/11 07:03:21;;;;;;;14.30;10.60;;;;;;;;;;5016165;28;20053;-61
2023/10/11 07:05:48;;;;;;;14.50;10.55;;;;;;;;;;5016345;28;20053;-63
2023/10/11 07:08:18;;;;;;;13.90;9.57;;;;;;;;;;5016123;28;20022;-61
2023/10/11 07:10:45;;;;;;;14.77;10.40;;;;;;;;;;5015435;28;20089;-63
2023/10/11 07:13:14;;;;;;;14.20;10.30;;;;;;;;;;5016355;28;20022;-61
2023/10/11 07:15:45;;;;;;;14.85;10.63;;;;;;;;;;5015463;28;20021;-60
2023/10/11 07:18:11;;;;;;;14.05;10.05;;;;;;;;;;5012358;28;20022;-57
2023/10/11 07:20:48;;;;;;;14.57;10.90;;;;;;;;;;5010092;28;20068;-53
2023/10/11 07:23:19;;;;;;;14.60;11.00;;;;;;;;;;5010961;28;20030;-58
2023/10/11 07:25:47;;;;;;;15.77;11.68;;;;;;;;;;5009385;28;20488;-56
2023/10/11 07:28:35;;;;;;;14.60;11.00;;;;;;;;;;5010781;28;20113;-57
2023/10/11 07:31:03;;;;;;;14.40;10.15;;;;;;;;;;5009746;28;20074;-54
2023/10/11 07:33:29;;;;;;;14.07;9.90;;;;;;;;;;5017863;28;20395;-52
2023/10/11 07:35:55;;;;;;;14.30;10.50;;;;;;;;;;5010348;28;20391;-53
2023/10/11 07:38:21;;;;;;;16.65;11.85;;;;;;;;;;5009461;28;20041;-53
2023/10/11 07:40:52;;;;;;;14.30;10.60;;;;;;;;;;5018050;28;20032;-56
2023/10/11 07:43:18;;;;;;;14.30;10.60;;;;;;;;;;5009227;28;20022;-57
2023/10/11 07:45:47;;;;;;;15.02;11.10;;;;;;;;;;5010341;28;20037;-52
2023/10/11 07:48:14;;;;;;;14.70;11.20;;;;;;;;;;5009272;28;20026;-54
2023/10/11 07:50:42;;;;;;;14.30;10.60;;;;;;;;;;5009098;28;20060;-55
2023/10/11 07:53:13;;;;;;;17.42;10.73;;;;;;;;;;5006896;28;20026;-51
2023/10/11 07:55:39;;;;;;;14.65;10.60;;;;;;;;;;5010531;28;20072;-53
2023/10/11 07:58:08;;;;;;;14.27;10.60;;;;;;;;;;5010203;28;20465;-52
2023/10/11 08:00:40;;;;;;;14.38;10.80;;;;;;;;;;5010124;28;20033;-54
2023/10/11 08:03:08;;;;;;;14.40;11.00;;;;;;;;;;5010737;28;20080;-55
2023/10/11 08:05:36;;;;;;;14.40;10.90;;;;;;;;;;5010173;28;20099;-52
2023/10/11 08:08:05;;;;;;;14.60;11.00;;;;;;;;;;5010279;28;20014;-53
2023/10/11 08:10:34;;;;;;;14.40;10.70;;;;;;;;;;5006513;28;20054;-52
2023/10/11 08:13:01;;;;;;;14.95;10.85;;;;;;;;;;5019063;28;20502;-52
2023/10/11 08:15:27;;;;;;;14.15;10.18;;;;;;;;;;5023514;28;20021;-58
2023/10/11 08:17:53;;;;;;;14.60;11.18;;;;;;;;;;5030079;28;20101;-56
2023/10/11 08:20:19;;;;;;;14.50;11.00;;;;;;;;;;5029306;28;20077;-54
2023/10/11 08:22:48;;;;;;;14.30;10.68;;;;;;;;;;5029931;28;20159;-54
2023/10/11 08:25:15;;;;;;;14.50;11.00;;;;;;;;;;5030003;28;20029;-51
2023/10/11 08:27:41;;;;;;;15.50;11.27;;;;;;;;;;5030002;28;20377;-49
2023/10/11 08:32:43;;;;;;;16.05;11.70;;;;;;;;;;5029679;28;20084;-53
2023/10/11 08:35:31;;;;;;;14.25;10.55;;;;;;;;;;5029814;28;20123;-52
2023/10/11 08:38:02;;;;;;;14.60;10.75;;;;;;;;;;5029822;28;20049;-52
2023/10/11 08:40:39;;;;;;;14.25;10.48;;;;;;;;;;5028985;28;20480;-51
2023/10/11 08:43:06;;;;;;;14.40;10.77;;;;;;;;;;5029748;28;20025;-52
2023/10/11 08:45:35;;;;;;;15.40;11.70;;;;;;;;;;5024666;28;20384;-53
2023/10/11 08:48:05;;;;;;;14.30;10.50;;;;;;;;;;5009740;28;20030;-50
2023/10/11 08:50:34;;;;;;;14.20;10.40;;;;;;;;;;5009204;28;20030;-54
2023/10/11 08:53:01;;;;;;;14.63;10.88;;;;;;;;;;5009576;28;20022;-51
2023/10/11 08:55:27;;;;;;;14.18;10.25;;;;;;;;;;5008636;28;20022;-49
2023/10/11 08:57:54;;;;;;;14.75;11.02;;;;;;;;;;5009744;28;20099;-52
2023/10/11 09:00:31;;;;;;;14.23;10.43;;;;;;;;;;5009185;28;20458;-55
2023/10/11 09:02:58;;;;;;;16.15;11.82;;;;;;;;;;5009891;28;20022;-50
2023/10/11 09:05:34;;;;;;;14.48;11.05;;;;;;;;;;5010075;28;20034;-53
2023/10/11 09:08:04;;;;;;;14.07;10.15;;;;;;;;;;5009732;28;20077;-50
2023/10/11 09:10:33;;;;;;;14.13;10.20;;;;;;;;;;5009032;28;20018;-55
2023/10/11 09:13:01;;;;;;;14.15;10.18;;;;;;;;;;5009633;28;20475;-60
2023/10/11 09:15:40;;;;;;;14.95;10.15;;;;;;;;;;5009623;28;20022;-56
2023/10/11 09:18:12;;;;;;;14.18;10.40;;;;;;;;;;5009697;28;20068;-55
2023/10/11 09:20:40;;;;;;;15.60;10.80;;;;;;;;;;5009216;28;20451;-58
2023/10/11 09:23:08;;;;;;;14.20;10.45;;;;;;;;;;5009428;28;20479;-57
2023/10/11 09:25:57;;;;;;;14.48;10.63;;;;;;;;;;5009664;28;20372;-55
2023/10/11 09:28:24;;;;;;;14.20;10.20;;;;;;;;;;5012853;28;20087;-56
2023/10/11 09:31:04;;;;;;;13.98;9.73;;;;;;;;;;5011271;28;20125;-57
2023/10/11 09:33:38;;;;;;;16.38;11.07;;;;;;;;;;5013030;28;20024;-53
2023/10/11 09:36:06;;;;;;;14.60;11.32;;;;;;;;;;5013069;28;20044;-60
2023/10/11 09:38:38;;;;;;;14.93;11.70;;;;;;;;;;5013009;28;20026;-54
2023/10/11 09:41:08;;;;;;;15.35;11.57;;;;;;;;;;5012366;28;20034;-56
2023/10/11 09:43:41;;;;;;;14.38;10.88;;;;;;;;;;5013012;28;20061;-57
2023/10/11 09:46:11;;;;;;;14.23;10.30;;;;;;;;;;5012626;28;20026;-54
2023/10/11 09:48:38;;;;;;;14.88;10.35;;;;;;;;;;5012966;28;20026;-55
2023/10/11 09:51:08;;;;;;;14.13;10.20;;;;;;;;;;5011881;28;20073;-58
2023/10/11 09:53:41;;;;;;;14.20;10.40;;;;;;;;;;5011350;28;20030;-56
2023/10/11 09:56:15;;;;;;;14.35;10.80;;;;;;;;;;5011794;28;20014;-55
2023/10/11 09:58:56;;;;;;;14.82;10.50;;;;;;;;;;5012819;28;20038;-54
2023/10/11 10:01:27;;;;;;;14.07;10.15;;;;;;;;;;5008181;28;20426;-56
2023/10/11 10:03:53;;;;;;;15.45;11.35;;;;;;;;;;5011129;28;20026;-54
2023/10/11 10:06:21;;;;;;;14.30;10.50;;;;;;;;;;5012408;28;20022;-55
2023/10/11 10:09:24;;;;;;;14.32;10.60;;;;;;;;;;5013052;28;20034;-57
2023/10/11 10:12:10;;;;;;;14.63;10.57;;;;;;;;;;5012345;28;20100;-51
2023/10/11 10:14:37;;;;;;;14.60;10.88;;;;;;;;;;5011924;28;20061;-54
2023/10/11 10:17:12;;;;;;;14.15;10.13;;;;;;;;;;5008357;28;20112;-54
2023/10/11 10:19:43;;;;;;;14.50;10.80;;;;;;;;;;5012650;28;20034;-58
2023/10/11 10:22:27;;;;;;;14.30;10.80;;;;;;;;;;5008471;28;20174;-54
2023/10/11 10:24:54;;;;;;;14.63;10.30;;;;;;;;;;5009516;28;20049;-54
2023/10/11 10:27:35;;;;;;;14.15;10.48;;;;;;;;;;5012080;28;20036;-57
2023/10/11 10:30:02;;;;;;;15.05;12.10;;;;;;;;;;5007505;28;20104;-56
2023/10/11 10:32:28;;;;;;;14.10;10.27;;;;;;;;;;5009478;28;20084;-57
2023/10/11 10:35:13;;;;;;;14.23;10.50;;;;;;;;;;5011232;28;20018;-52
2023/10/11 10:38:03;;;;;;;14.50;10.50;;;;;;;;;;5011853;28;20434;-55
2023/10/11 10:40:29;;;;;;;14.30;10.70;;;;;;;;;;5010722;28;20036;-56
2023/10/11 10:43:08;;;;;;;14.10;10.20;;;;;;;;;;5011829;28;20105;-55
2023/10/11 10:45:35;;;;;;;14.35;10.75;;;;;;;;;;5013030;28;20030;-57
2023/10/11 10:48:23;;;;;;;14.20;10.63;;;;;;;;;;5011400;28;20024;-56
2023/10/11 10:50:52;;;;;;;14.45;11.07;;;;;;;;;;5010154;28;20554;-60
2023/10/11 10:53:20;;;;;;;14.40;11.10;;;;;;;;;;5011254;28;20093;-58
2023/10/11 10:55:47;;;;;;;14.10;10.20;;;;;;;;;;5011432;28;20549;-57
2023/10/11 10:58:18;;;;;;;15.05;11.73;;;;;;;;;;5011629;28;20399;-55
2023/10/11 11:00:47;;;;;;;14.50;10.40;;;;;;;;;;5010328;28;20018;-54
2023/10/11 11:03:18;;;;;;;14.10;9.70;;;;;;;;;;5011214;28;20079;-59
2023/10/11 11:05:57;;;;;;;15.55;10.20;;;;;;;;;;4659418;28;9999890;-56
2023/10/11 11:08:27;;;;;;;15.55;11.10;;;;;;;;;;5015296;28;20315;-53
2023/10/11 11:11:19;;;;;;;14.40;10.10;;;;;;;;;;5008358;28;20037;-54
2023/10/11 11:13:51;;;;;;;14.30;10.38;;;;;;;;;;5007933;28;20026;-54
2023/10/11 11:16:26;;;;;;;14.02;10.00;;;;;;;;;;5007632;28;20026;-58
2023/10/11 11:18:52;;;;;;;14.27;10.70;;;;;;;;;;5007750;28;20492;-57
2023/10/11 11:21:25;;;;;;;14.50;10.93;;;;;;;;;;5003175;28;20033;-55
2023/10/11 11:23:52;;;;;;;14.88;11.05;;;;;;;;;;5007100;28;20033;-57
2023/10/11 11:26:21;;;;;;;14.18;10.27;;;;;;;;;;5005957;28;20026;-56
2023/10/11 11:28:47;;;;;;;15.60;11.20;;;;;;;;;;5008353;28;20037;-57
2023/10/11 11:31:13;;;;;;;14.60;10.60;;;;;;;;;;5013171;28;20451;-54
2023/10/11 11:34:04;;;;;;;14.10;10.13;;;;;;;;;;5007037;28;20114;-55
2023/10/11 11:36:30;;;;;;;14.70;10.70;;;;;;;;;;5007672;28;20035;-56
2023/10/11 11:39:16;;;;;;;14.88;10.98;;;;;;;;;;5009046;28;20100;-55
2023/10/11 11:41:43;;;;;;;14.60;10.80;;;;;;;;;;5009405;28;20424;-58
2023/10/11 11:44:19;;;;;;;16.25;10.90;;;;;;;;;;5009912;28;20038;-56
2023/10/11 11:46:48;;;;;;;14.65;11.60;;;;;;;;;;5009951;28;20022;-53
2023/10/11 11:49:15;;;;;;;14.60;11.30;;;;;;;;;;5009042;28;20587;-55
2023/10/11 11:51:41;;;;;;;14.68;11.05;;;;;;;;;;5008821;28;20447;-54
2023/10/11 11:54:10;;;;;;;14.85;11.32;;;;;;;;;;4660902;28;9999834;-56
2023/10/11 11:56:37;;;;;;;14.65;11.50;;;;;;;;;;5007536;28;20034;-56
2023/10/11 11:59:03;;;;;;;14.32;10.68;;;;;;;;;;5007433;28;20785;-57
2023/10/11 12:01:29;;;;;;;15.35;11.55;;;;;;;;;;5004558;28;20121;-56
2023/10/11 12:03:55;;;;;;;16.40;11.57;;;;;;;;;;5006524;28;20168;-58
2023/10/11 12:06:21;;;;;;;14.55;11.18;;;;;;;;;;5006040;28;20109;-56
2023/10/11 12:08:48;;;;;;;15.13;11.52;;;;;;;;;;5006343;28;20093;-58
2023/10/11 12:11:15;;;;;;;15.55;11.73;;;;;;;;;;5002808;28;20113;-52
2023/10/11 12:13:41;;;;;;;14.40;10.93;;;;;;;;;;5005376;28;20026;-54
2023/10/11 12:16:09;;;;;;;14.70;10.90;;;;;;;;;;5005341;28;20045;-56
2023/10/11 12:18:35;;;;;;;14.70;11.20;;;;;;;;;;5006334;28;20398;-56
2023/10/11 12:21:11;;;;;;;16.40;10.90;;;;;;;;;;5005344;28;20104;-51
2023/10/11 12:23:46;;;;;;;14.80;11.07;;;;;;;;;;5004983;28;20065;-56
2023/10/11 12:26:12;;;;;;;14.82;11.32;;;;;;;;;;5006832;28;20025;-56
2023/10/11 12:28:38;;;;;;;14.73;11.50;;;;;;;;;;5006406;28;20437;-53
2023/10/11 12:31:04;;;;;;;15.02;11.68;;;;;;;;;;5013100;28;20104;-59
2023/10/11 12:33:32;;;;;;;17.33;12.95;;;;;;;;;;5005934;28;20030;-55
2023/10/11 12:35:58;;;;;;;15.95;11.10;;;;;;;;;;5014199;28;20101;-58
2023/10/11 12:38:24;;;;;;;14.40;10.75;;;;;;;;;;5006088;28;20026;-56
2023/10/11 12:40:50;;;;;;;14.98;11.30;;;;;;;;;;5005089;28;20022;-53
2023/10/11 12:43:22;;;;;;;16.25;11.15;;;;;;;;;;5004553;28;20554;-59
2023/10/11 12:45:48;;;;;;;14.55;10.90;;;;;;;;;;5004740;28;20112;-57
2023/10/11 12:48:15;;;;;;;14.82;11.05;;;;;;;;;;5005897;28;20034;-52
2023/10/11 12:50:41;;;;;;;16.15;11.40;;;;;;;;;;5005177;28;20084;-58
2023/10/11 12:53:11;;;;;;;16.33;12.05;;;;;;;;;;5013659;28;20089;-56
2023/10/11 12:55:50;;;;;;;14.50;10.75;;;;;;;;;;5014358;28;20014;-56
2023/10/11 12:58:19;;;;;;;21.10;12.50;;;;;;;;;;4987859;28;20743;-54
2023/10/11 13:00:53;;;;;;;14.75;11.15;;;;;;;;;;4987122;28;20110;-58
2023/10/11 13:03:28;;;;;;;14.60;11.35;;;;;;;;;;4991445;28;20026;-58
2023/10/11 13:05:54;;;;;;;14.50;11.10;;;;;;;;;;4992247;28;20081;-55
2023/10/11 13:08:28;;;;;;;15.45;11.68;;;;;;;;;;4992071;28;20031;-54
2023/10/11 13:10:54;;;;;;;18.83;11.90;;;;;;;;;;4992660;28;20034;-57
2023/10/11 13:13:23;;;;;;;15.10;11.32;;;;;;;;;;4993508;28;20229;-57
2023/10/11 13:16:01;;;;;;;16.25;12.50;;;;;;;;;;4993676;28;20415;-54
2023/10/11 13:18:27;;;;;;;14.80;11.20;;;;;;;;;;4993672;28;20026;-51
2023/10/11 13:20:57;;;;;;;14.90;11.55;;;;;;;;;;4993035;28;20050;-52
2023/10/11 13:23:28;;;;;;;14.43;11.07;;;;;;;;;;4993693;28;20030;-50
2023/10/11 13:26:07;;;;;;;14.50;11.18;;;;;;;;;;4993761;28;20093;-57
2023/10/11 13:28:34;;;;;;;15.80;12.50;;;;;;;;;;4993956;28;20035;-55
2023/10/11 13:31:01;;;;;;;15.68;11.85;;;;;;;;;;4992964;28;20080;-58
2023/10/11 13:33:30;;;;;;;15.23;12.18;;;;;;;;;;4993464;28;20070;-57
2023/10/11 13:35:57;;;;;;;14.70;11.70;;;;;;;;;;4993426;28;20101;-54
2023/10/11 13:38:22;;;;;;;14.98;12.15;;;;;;;;;;4993604;28;20026;-53
2023/10/11 13:40:50;;;;;;;14.88;12.10;;;;;;;;;;4992810;28;20439;-51
2023/10/11 13:43:19;;;;;;;14.65;11.55;;;;;;;;;;4993388;28;20129;-57
2023/10/11 13:45:48;;;;;;;15.25;12.43;;;;;;;;;;4999587;28;20022;-55
2023/10/11 13:48:14;;;;;;;15.27;12.35;;;;;;;;;;5013056;28;20161;-55
2023/10/11 13:50:49;;;;;;;15.23;12.63;;;;;;;;;;5012312;28;20464;-56
2023/10/11 13:53:15;;;;;;;15.23;12.00;;;;;;;;;;5013040;28;20037;-58
2023/10/11 13:55:42;;;;;;;14.98;12.10;;;;;;;;;;5012566;28;20519;-51
2023/10/11 13:58:11;;;;;;;14.93;12.25;;;;;;;;;;5012294;28;20427;-57
2023/10/11 14:01:01;;;;;;;22.38;13.85;;;;;;;;;;5011183;28;20033;-56
2023/10/11 14:06:20;;;;;;;14.80;11.80;;;;;;;;;;5011997;28;20495;-56
2023/10/11 14:08:47;;;;;;;15.85;12.98;;;;;;;;;;5012241;28;20460;-54
2023/10/11 14:11:20;;;;;;;15.38;12.13;;;;;;;;;;5011354;28;20029;-52
2023/10/11 14:13:52;;;;;;;22.85;12.98;;;;;;;;;;5010585;28;20036;-55
2023/10/11 14:16:21;;;;;;;18.15;11.60;;;;;;;;;;5010598;28;20022;-58
2023/10/11 14:18:49;;;;;;;15.48;12.35;;;;;;;;;;5011978;28;20095;-59
2023/10/11 14:21:19;;;;;;;14.35;10.88;;;;;;;;;;5011310;28;20014;-59
2023/10/11 14:23:45;;;;;;;19.35;11.93;;;;;;;;;;5010615;28;20215;-57
2023/10/11 14:26:13;;;;;;;15.45;12.70;;;;;;;;;;5010432;28;20025;-58
2023/10/11 14:28:39;;;;;;;15.30;12.07;;;;;;;;;;5011985;28;20026;-58
2023/10/11 14:31:05;;;;;;;14.43;10.98;;;;;;;;;;5010830;28;20073;-60
2023/10/11 14:33:33;;;;;;;15.48;12.27;;;;;;;;;;5011546;28;20034;-59
2023/10/11 14:35:59;;;;;;;15.02;11.82;;;;;;;;;;5011996;28;20022;-58
2023/10/11 14:38:25;;;;;;;15.05;11.90;;;;;;;;;;5011565;28;20212;-59
2023/10/11 14:40:51;;;;;;;14.40;10.93;;;;;;;;;;5010721;28;20018;-62
2023/10/11 14:43:17;;;;;;;15.40;11.50;;;;;;;;;;5011324;28;20105;-63
2023/10/11 14:45:48;;;;;;;14.88;11.80;;;;;;;;;;5011726;28;20026;-59
2023/10/11 14:48:14;;;;;;;14.55;11.45;;;;;;;;;;4997677;28;20067;-60
2023/10/11 14:50:42;;;;;;;16.40;12.15;;;;;;;;;;4991422;28;20030;-62
2023/10/11 14:53:13;;;;;;;14.23;10.45;;;;;;;;;;4990994;28;20492;-61
2023/10/11 14:55:39;;;;;;;14.60;11.10;;;;;;;;;;5016437;28;20033;-60
2023/10/11 14:58:05;;;;;;;14.30;10.60;;;;;;;;;;5031494;28;20029;-59
2023/10/11 15:00:34;;;;;;;14.75;11.30;;;;;;;;;;5030768;28;20826;-58
2023/10/11 15:03:05;;;;;;;15.82;12.43;;;;;;;;;;4664676;28;9999609;-59
2023/10/11 15:05:31;;;;;;;14.63;10.68;;;;;;;;;;5000127;28;20018;-61
2023/10/11 15:07:57;;;;;;;17.73;11.23;;;;;;;;;;5007228;28;20775;-62
2023/10/11 15:10:23;;;;;;;14.38;10.75;;;;;;;;;;5006429;28;20081;-58
2023/10/11 15:12:50;;;;;;;14.75;11.25;;;;;;;;;;5006440;28;20503;-58
2023/10/11 15:15:19;;;;;;;14.40;10.50;;;;;;;;;;5007360;28;20033;-63
2023/10/11 15:17:47;;;;;;;14.30;10.63;;;;;;;;;;5006524;28;20518;-61
2023/10/11 15:20:13;;;;;;;15.32;12.48;;;;;;;;;;5007387;28;20025;-54
2023/10/11 15:22:40;;;;;;;14.70;10.85;;;;;;;;;;5007398;28;20022;-61